sensor_id;sensor_type;location;lat;lon;timestamp;P1;durP1;ratioP1;P2;durP2;ratioP2
80910;SDS011;70359;51.420;7.032;2023-06-22T00:01:50;1.7;;;1.6;;
80910;SDS011;70359;51.420;7.032;2023-06-22T00:04:15;1.7;;;1.6;;
80910;SDS011;70359;51.420;7.032;2023-06-22T00:06:40;1.7;;;1.6;;
80910;SDS011;70359;51.420;7.032;2023-06-22T00:09:05;2;;;1.8;;
80910;SDS011;70359;51.420;7.032;2023-06-22T00:11:30;2;;;1.8;;
80910;SDS011;70359;51.420;7.032;2023-06-22T00:13:55;2.2;;;2;;
80910;SDS011;70359;51.420;7.032;2023-06-22T00:16:20;2.2;;;2;;
80910;SDS011;70359;51.420;7.032;2023-06-22T00:18:45;2.6;;;2.4;;
80910;SDS011;70359;51.420;7.032;2023-06-22T00:21:14;2.6;;;2.4;;
80910;SDS011;70359;51.420;7.032;2023-06-22T00:23:35;2.6;;;2.4;;
80910;SDS011;70359;51.420;7.032;2023-06-22T00:26:00;2.7;;;2.5;;
80910;SDS011;70359;51.420;7.032;2023-06-22T00:28:29;2.7;;;2.5;;
80910;SDS011;70359;51.420;7.032;2023-06-22T00:30:50;3.1;;;2.8;;
80910;SDS011;70359;51.420;7.032;2023-06-22T00:33:19;3.1;;;2.8;;
80910;SDS011;70359;51.420;7.032;2023-06-22T00:35:40;12.9;;;3.3;;
80910;SDS011;70359;51.420;7.032;2023-06-22T00:38:05;12.9;;;3.3;;
80910;SDS011;70359;51.420;7.032;2023-06-22T00:40:31;4.5;;;3.4;;
80910;SDS011;70359;51.420;7.032;2023-06-22T00:42:55;4.5;;;3.4;;
80910;SDS011;70359;51.420;7.032;2023-06-22T00:45:20;3.2;;;2.7;;
80910;SDS011;70359;51.420;7.032;2023-06-22T00:47:49;3.2;;;2.7;;
80910;SDS011;70359;51.420;7.032;2023-06-22T00:50:17;3.9;;;2.9;;
80910;SDS011;70359;51.420;7.032;2023-06-22T00:52:35;3.9;;;2.9;;
80910;SDS011;70359;51.420;7.032;2023-06-22T00:55:01;2.8;;;2.6;;
80910;SDS011;70359;51.420;7.032;2023-06-22T00:57:30;2.8;;;2.6;;
80910;SDS011;70359;51.420;7.032;2023-06-22T00:59:50;3;;;2.7;;
80910;SDS011;70359;51.420;7.032;2023-06-22T01:02:19;3;;;2.7;;
80910;SDS011;70359;51.420;7.032;2023-06-22T01:04:40;2.8;;;2.6;;
80910;SDS011;70359;51.420;7.032;2023-06-22T01:07:10;2.8;;;2.6;;
80910;SDS011;70359;51.420;7.032;2023-06-22T01:09:32;2.6;;;2.4;;
80910;SDS011;70359;51.420;7.032;2023-06-22T01:12:00;2.6;;;2.4;;
80910;SDS011;70359;51.420;7.032;2023-06-22T01:14:23;3;;;2.8;;
80910;SDS011;70359;51.420;7.032;2023-06-22T01:16:51;3;;;2.8;;
80910;SDS011;70359;51.420;7.032;2023-06-22T01:19:20;4.3;;;2.7;;
80910;SDS011;70359;51.420;7.032;2023-06-22T01:21:40;4.3;;;2.7;;
80910;SDS011;70359;51.420;7.032;2023-06-22T01:24:10;2.3;;;2.1;;
80910;SDS011;70359;51.420;7.032;2023-06-22T01:26:35;2.3;;;2.1;;
80910;SDS011;70359;51.420;7.032;2023-06-22T01:28:53;2.9;;;2.1;;
80910;SDS011;70359;51.420;7.032;2023-06-22T01:31:18;2.9;;;2.1;;
80910;SDS011;70359;51.420;7.032;2023-06-22T01:33:43;2.9;;;2.1;;
80910;SDS011;70359;51.420;7.032;2023-06-22T01:36:06;2.9;;;2.6;;
80910;SDS011;70359;51.420;7.032;2023-06-22T01:38:31;2.9;;;2.6;;
80910;SDS011;70359;51.420;7.032;2023-06-22T01:40:57;2.3;;;2.1;;
80910;SDS011;70359;51.420;7.032;2023-06-22T01:43:21;2.3;;;2.1;;
80910;SDS011;70359;51.420;7.032;2023-06-22T01:45:46;2.3;;;2.1;;
80910;SDS011;70359;51.420;7.032;2023-06-22T01:48:14;2.3;;;2.1;;
80910;SDS011;70359;51.420;7.032;2023-06-22T01:50:35;2.1;;;1.9;;
80910;SDS011;70359;51.420;7.032;2023-06-22T01:53:00;2.1;;;1.9;;
80910;SDS011;70359;51.420;7.032;2023-06-22T01:55:25;4.1;;;2.2;;
80910;SDS011;70359;51.420;7.032;2023-06-22T01:57:50;4.1;;;2.2;;
80910;SDS011;70359;51.420;7.032;2023-06-22T02:00:18;2.5;;;2.3;;
80910;SDS011;70359;51.420;7.032;2023-06-22T02:02:43;2.5;;;2.3;;
80910;SDS011;70359;51.420;7.032;2023-06-22T02:05:07;2.6;;;2.4;;
80910;SDS011;70359;51.420;7.032;2023-06-22T02:07:33;2.6;;;2.4;;
80910;SDS011;70359;51.420;7.032;2023-06-22T02:09:56;1.9;;;1.8;;
80910;SDS011;70359;51.420;7.032;2023-06-22T02:12:23;1.9;;;1.8;;
80910;SDS011;70359;51.420;7.032;2023-06-22T02:14:46;2.6;;;2.3;;
80910;SDS011;70359;51.420;7.032;2023-06-22T02:17:11;2.6;;;2.3;;
80910;SDS011;70359;51.420;7.032;2023-06-22T02:19:35;3;;;2.8;;
80910;SDS011;70359;51.420;7.032;2023-06-22T02:22:00;3;;;2.8;;
80910;SDS011;70359;51.420;7.032;2023-06-22T02:24:25;2.4;;;2.1;;
80910;SDS011;70359;51.420;7.032;2023-06-22T02:26:50;2.4;;;2.1;;
80910;SDS011;70359;51.420;7.032;2023-06-22T02:29:15;2.8;;;2.6;;
80910;SDS011;70359;51.420;7.032;2023-06-22T02:31:40;2.8;;;2.6;;
80910;SDS011;70359;51.420;7.032;2023-06-22T02:34:09;2.9;;;2.7;;
80910;SDS011;70359;51.420;7.032;2023-06-22T02:36:30;2.9;;;2.7;;
80910;SDS011;70359;51.420;7.032;2023-06-22T02:38:56;2.9;;;2.7;;
80910;SDS011;70359;51.420;7.032;2023-06-22T02:41:20;3.6;;;2.9;;
80910;SDS011;70359;51.420;7.032;2023-06-22T02:43:46;3.6;;;2.9;;
80910;SDS011;70359;51.420;7.032;2023-06-22T02:46:11;2.7;;;2.5;;
80910;SDS011;70359;51.420;7.032;2023-06-22T02:48:35;2.7;;;2.5;;
80910;SDS011;70359;51.420;7.032;2023-06-22T02:51:00;4;;;3.3;;
80910;SDS011;70359;51.420;7.032;2023-06-22T02:53:26;4;;;3.3;;
80910;SDS011;70359;51.420;7.032;2023-06-22T02:55:55;5.7;;;3.6;;
80910;SDS011;70359;51.420;7.032;2023-06-22T02:58:16;5.7;;;3.6;;
80910;SDS011;70359;51.420;7.032;2023-06-22T03:00:41;3.5;;;3.1;;
80910;SDS011;70359;51.420;7.032;2023-06-22T03:03:09;3.5;;;3.1;;
80910;SDS011;70359;51.420;7.032;2023-06-22T03:05:35;4.4;;;4;;
80910;SDS011;70359;51.420;7.032;2023-06-22T03:08:00;4.4;;;4;;
80910;SDS011;70359;51.420;7.032;2023-06-22T03:10:21;3.7;;;3.4;;
80910;SDS011;70359;51.420;7.032;2023-06-22T03:12:46;3.7;;;3.4;;
80910;SDS011;70359;51.420;7.032;2023-06-22T03:15:12;4.2;;;3.9;;
80910;SDS011;70359;51.420;7.032;2023-06-22T03:17:37;4.2;;;3.9;;
80910;SDS011;70359;51.420;7.032;2023-06-22T03:20:01;4.2;;;3.8;;
80910;SDS011;70359;51.420;7.032;2023-06-22T03:22:26;4.2;;;3.8;;
80910;SDS011;70359;51.420;7.032;2023-06-22T03:24:51;4.3;;;3.9;;
80910;SDS011;70359;51.420;7.032;2023-06-22T03:27:20;4.3;;;3.9;;
80910;SDS011;70359;51.420;7.032;2023-06-22T03:29:41;4.9;;;3.8;;
80910;SDS011;70359;51.420;7.032;2023-06-22T03:32:06;4.9;;;3.8;;
80910;SDS011;70359;51.420;7.032;2023-06-22T03:34:35;3.8;;;3.4;;
80910;SDS011;70359;51.420;7.032;2023-06-22T03:36:56;3.8;;;3.4;;
80910;SDS011;70359;51.420;7.032;2023-06-22T03:39:21;4.1;;;3.8;;
80910;SDS011;70359;51.420;7.032;2023-06-22T03:41:46;4.1;;;3.8;;
80910;SDS011;70359;51.420;7.032;2023-06-22T03:44:15;5.7;;;4.5;;
80910;SDS011;70359;51.420;7.032;2023-06-22T03:46:40;5.7;;;4.5;;
80910;SDS011;70359;51.420;7.032;2023-06-22T03:49:01;5.7;;;4.5;;
80910;SDS011;70359;51.420;7.032;2023-06-22T03:51:26;4.2;;;3.9;;
80910;SDS011;70359;51.420;7.032;2023-06-22T03:53:51;4.2;;;3.9;;
80910;SDS011;70359;51.420;7.032;2023-06-22T03:56:16;4.7;;;4.3;;
80910;SDS011;70359;51.420;7.032;2023-06-22T03:58:41;4.7;;;4.3;;
80910;SDS011;70359;51.420;7.032;2023-06-22T04:01:06;4.1;;;3.7;;
80910;SDS011;70359;51.420;7.032;2023-06-22T04:03:35;4.1;;;3.7;;
80910;SDS011;70359;51.420;7.032;2023-06-22T04:05:56;3.6;;;3.4;;
80910;SDS011;70359;51.420;7.032;2023-06-22T04:08:21;3.6;;;3.4;;
80910;SDS011;70359;51.420;7.032;2023-06-22T04:10:46;4.8;;;4.3;;
80910;SDS011;70359;51.420;7.032;2023-06-22T04:13:11;4.8;;;4.3;;
80910;SDS011;70359;51.420;7.032;2023-06-22T04:15:36;4.4;;;4;;
80910;SDS011;70359;51.420;7.032;2023-06-22T04:18:01;4.4;;;4;;
80910;SDS011;70359;51.420;7.032;2023-06-22T04:20:26;4.6;;;4.1;;
80910;SDS011;70359;51.420;7.032;2023-06-22T04:22:51;4.6;;;4.1;;
80910;SDS011;70359;51.420;7.032;2023-06-22T04:25:17;5.4;;;4;;
80910;SDS011;70359;51.420;7.032;2023-06-22T04:27:45;5.4;;;4;;
80910;SDS011;70359;51.420;7.032;2023-06-22T04:30:07;4.7;;;4.3;;
80910;SDS011;70359;51.420;7.032;2023-06-22T04:32:31;4.7;;;4.3;;
80910;SDS011;70359;51.420;7.032;2023-06-22T04:34:56;5.3;;;4.8;;
80910;SDS011;70359;51.420;7.032;2023-06-22T04:37:21;5.3;;;4.8;;
80910;SDS011;70359;51.420;7.032;2023-06-22T04:39:46;4.7;;;4.3;;
80910;SDS011;70359;51.420;7.032;2023-06-22T04:42:11;4.7;;;4.3;;
80910;SDS011;70359;51.420;7.032;2023-06-22T04:44:40;5.7;;;5.2;;
80910;SDS011;70359;51.420;7.032;2023-06-22T04:47:01;5.7;;;5.2;;
80910;SDS011;70359;51.420;7.032;2023-06-22T04:49:27;5.7;;;5.1;;
80910;SDS011;70359;51.420;7.032;2023-06-22T04:51:51;5.7;;;5.1;;
80910;SDS011;70359;51.420;7.032;2023-06-22T04:54:16;4.9;;;4.5;;
80910;SDS011;70359;51.420;7.032;2023-06-22T04:56:45;4.9;;;4.5;;
80910;SDS011;70359;51.420;7.032;2023-06-22T04:59:06;4.9;;;4.5;;
80910;SDS011;70359;51.420;7.032;2023-06-22T05:01:31;5.9;;;5.3;;
80910;SDS011;70359;51.420;7.032;2023-06-22T05:03:56;5.9;;;5.3;;
80910;SDS011;70359;51.420;7.032;2023-06-22T05:06:21;6.1;;;5.2;;
80910;SDS011;70359;51.420;7.032;2023-06-22T05:08:46;6.1;;;5.2;;
80910;SDS011;70359;51.420;7.032;2023-06-22T05:11:15;5.3;;;4.8;;
80910;SDS011;70359;51.420;7.032;2023-06-22T05:13:40;5.3;;;4.8;;
80910;SDS011;70359;51.420;7.032;2023-06-22T05:16:01;6;;;5.4;;
80910;SDS011;70359;51.420;7.032;2023-06-22T05:18:30;6;;;5.4;;
80910;SDS011;70359;51.420;7.032;2023-06-22T05:20:51;7.7;;;5.2;;
80910;SDS011;70359;51.420;7.032;2023-06-22T05:23:16;7.7;;;5.2;;
80910;SDS011;70359;51.420;7.032;2023-06-22T05:25:41;5.2;;;4.6;;
80910;SDS011;70359;51.420;7.032;2023-06-22T05:28:06;5.2;;;4.6;;
80910;SDS011;70359;51.420;7.032;2023-06-22T05:30:35;5.6;;;5.1;;
80910;SDS011;70359;51.420;7.032;2023-06-22T05:32:56;5.6;;;5.1;;
80910;SDS011;70359;51.420;7.032;2023-06-22T05:35:21;7.3;;;6;;
80910;SDS011;70359;51.420;7.032;2023-06-22T05:37:46;7.3;;;6;;
80910;SDS011;70359;51.420;7.032;2023-06-22T05:40:16;5.8;;;5;;
80910;SDS011;70359;51.420;7.032;2023-06-22T05:42:40;5.8;;;5;;
80910;SDS011;70359;51.420;7.032;2023-06-22T05:45:01;5.6;;;5.1;;
80910;SDS011;70359;51.420;7.032;2023-06-22T05:47:26;5.6;;;5.1;;
80910;SDS011;70359;51.420;7.032;2023-06-22T05:49:51;5.4;;;4.9;;
80910;SDS011;70359;51.420;7.032;2023-06-22T05:52:16;5.4;;;4.9;;
80910;SDS011;70359;51.420;7.032;2023-06-22T05:54:45;5.3;;;4.8;;
80910;SDS011;70359;51.420;7.032;2023-06-22T05:57:10;5.3;;;4.8;;
80910;SDS011;70359;51.420;7.032;2023-06-22T05:59:31;5.9;;;4.9;;
80910;SDS011;70359;51.420;7.032;2023-06-22T06:01:56;5.9;;;4.9;;
80910;SDS011;70359;51.420;7.032;2023-06-22T06:04:21;5;;;4.6;;
80910;SDS011;70359;51.420;7.032;2023-06-22T06:06:46;5;;;4.6;;
80910;SDS011;70359;51.420;7.032;2023-06-22T06:09:11;5;;;4.6;;
80910;SDS011;70359;51.420;7.032;2023-06-22T06:11:36;5.6;;;4.9;;
80910;SDS011;70359;51.420;7.032;2023-06-22T06:14:01;5.6;;;4.9;;
80910;SDS011;70359;51.420;7.032;2023-06-22T06:16:26;5.3;;;4.8;;
80910;SDS011;70359;51.420;7.032;2023-06-22T06:18:51;5.3;;;4.8;;
80910;SDS011;70359;51.420;7.032;2023-06-22T06:21:16;5.5;;;5;;
80910;SDS011;70359;51.420;7.032;2023-06-22T06:23:41;5.5;;;5;;
80910;SDS011;70359;51.420;7.032;2023-06-22T06:26:06;6.1;;;5.5;;
80910;SDS011;70359;51.420;7.032;2023-06-22T06:28:31;6.1;;;5.5;;
80910;SDS011;70359;51.420;7.032;2023-06-22T06:31:00;4.9;;;4.5;;
80910;SDS011;70359;51.420;7.032;2023-06-22T06:33:21;4.9;;;4.5;;
80910;SDS011;70359;51.420;7.032;2023-06-22T06:35:46;5;;;4.5;;
80910;SDS011;70359;51.420;7.032;2023-06-22T06:38:11;5;;;4.5;;
80910;SDS011;70359;51.420;7.032;2023-06-22T06:40:36;5.7;;;5.1;;
80910;SDS011;70359;51.420;7.032;2023-06-22T06:43:01;5.7;;;5.1;;
80910;SDS011;70359;51.420;7.032;2023-06-22T06:45:26;5.3;;;4.8;;
80910;SDS011;70359;51.420;7.032;2023-06-22T06:47:51;5.3;;;4.8;;
80910;SDS011;70359;51.420;7.032;2023-06-22T06:50:17;5;;;4.6;;
80910;SDS011;70359;51.420;7.032;2023-06-22T06:52:41;5;;;4.6;;
80910;SDS011;70359;51.420;7.032;2023-06-22T06:55:07;5.2;;;4.7;;
80910;SDS011;70359;51.420;7.032;2023-06-22T06:57:31;5.2;;;4.7;;
80910;SDS011;70359;51.420;7.032;2023-06-22T06:59:57;4.7;;;4.3;;
80910;SDS011;70359;51.420;7.032;2023-06-22T07:02:21;4.7;;;4.3;;
80910;SDS011;70359;51.420;7.032;2023-06-22T07:04:46;4.8;;;4.4;;
80910;SDS011;70359;51.420;7.032;2023-06-22T07:07:11;4.8;;;4.4;;
80910;SDS011;70359;51.420;7.032;2023-06-22T07:09:36;5.1;;;4.7;;
80910;SDS011;70359;51.420;7.032;2023-06-22T07:12:06;5.1;;;4.7;;
80910;SDS011;70359;51.420;7.032;2023-06-22T07:14:30;5.1;;;4.7;;
80910;SDS011;70359;51.420;7.032;2023-06-22T07:16:51;4.9;;;4.5;;
80910;SDS011;70359;51.420;7.032;2023-06-22T07:19:23;4.9;;;4.5;;
80910;SDS011;70359;51.420;7.032;2023-06-22T07:21:45;6.7;;;5.4;;
80910;SDS011;70359;51.420;7.032;2023-06-22T07:24:06;6.7;;;5.4;;
80910;SDS011;70359;51.420;7.032;2023-06-22T07:26:31;6.8;;;5.5;;
80910;SDS011;70359;51.420;7.032;2023-06-22T07:28:56;6.8;;;5.5;;
80910;SDS011;70359;51.420;7.032;2023-06-22T07:31:21;4.8;;;4.4;;
80910;SDS011;70359;51.420;7.032;2023-06-22T07:33:46;4.8;;;4.4;;
80910;SDS011;70359;51.420;7.032;2023-06-22T07:36:11;5.4;;;4.9;;
80910;SDS011;70359;51.420;7.032;2023-06-22T07:38:36;5.4;;;4.9;;
80910;SDS011;70359;51.420;7.032;2023-06-22T07:41:01;5.3;;;4.8;;
80910;SDS011;70359;51.420;7.032;2023-06-22T07:43:26;5.3;;;4.8;;
80910;SDS011;70359;51.420;7.032;2023-06-22T07:45:54;5.8;;;5.3;;
80910;SDS011;70359;51.420;7.032;2023-06-22T07:48:16;5.8;;;5.3;;
80910;SDS011;70359;51.420;7.032;2023-06-22T07:50:41;5.9;;;5.4;;
80910;SDS011;70359;51.420;7.032;2023-06-22T07:53:06;5.9;;;5.4;;
80910;SDS011;70359;51.420;7.032;2023-06-22T07:55:33;6;;;5.4;;
80910;SDS011;70359;51.420;7.032;2023-06-22T07:57:56;6;;;5.4;;
80910;SDS011;70359;51.420;7.032;2023-06-22T08:00:21;6;;;5.5;;
80910;SDS011;70359;51.420;7.032;2023-06-22T08:02:46;6;;;5.5;;
80910;SDS011;70359;51.420;7.032;2023-06-22T08:05:11;5.8;;;5.3;;
80910;SDS011;70359;51.420;7.032;2023-06-22T08:07:36;5.8;;;5.3;;
80910;SDS011;70359;51.420;7.032;2023-06-22T08:10:01;6.1;;;5.5;;
80910;SDS011;70359;51.420;7.032;2023-06-22T08:12:26;6.1;;;5.5;;
80910;SDS011;70359;51.420;7.032;2023-06-22T08:14:51;6.2;;;5.7;;
80910;SDS011;70359;51.420;7.032;2023-06-22T08:17:16;6.2;;;5.7;;
80910;SDS011;70359;51.420;7.032;2023-06-22T08:19:41;8.3;;;7.5;;
80910;SDS011;70359;51.420;7.032;2023-06-22T08:22:06;8.3;;;7.5;;
80910;SDS011;70359;51.420;7.032;2023-06-22T08:24:31;8.3;;;7.5;;
80910;SDS011;70359;51.420;7.032;2023-06-22T08:26:56;8.6;;;6.5;;
80910;SDS011;70359;51.420;7.032;2023-06-22T08:29:21;8.6;;;6.5;;
80910;SDS011;70359;51.420;7.032;2023-06-22T08:31:46;8.2;;;6.7;;
80910;SDS011;70359;51.420;7.032;2023-06-22T08:34:11;8.2;;;6.7;;
80910;SDS011;70359;51.420;7.032;2023-06-22T08:36:37;6.3;;;5.8;;
80910;SDS011;70359;51.420;7.032;2023-06-22T08:39:01;6.3;;;5.8;;
80910;SDS011;70359;51.420;7.032;2023-06-22T08:41:26;7.7;;;7;;
80910;SDS011;70359;51.420;7.032;2023-06-22T08:43:51;7.7;;;7;;
80910;SDS011;70359;51.420;7.032;2023-06-22T08:46:20;7.1;;;6.4;;
80910;SDS011;70359;51.420;7.032;2023-06-22T08:48:45;7.1;;;6.4;;
80910;SDS011;70359;51.420;7.032;2023-06-22T08:51:10;6.7;;;6.1;;
80910;SDS011;70359;51.420;7.032;2023-06-22T08:53:31;6.7;;;6.1;;
80910;SDS011;70359;51.420;7.032;2023-06-22T08:55:56;7.6;;;6.8;;
80910;SDS011;70359;51.420;7.032;2023-06-22T08:58:21;7.6;;;6.8;;
80910;SDS011;70359;51.420;7.032;2023-06-22T09:00:46;6.7;;;6.1;;
80910;SDS011;70359;51.420;7.032;2023-06-22T09:03:11;6.7;;;6.1;;
80910;SDS011;70359;51.420;7.032;2023-06-22T09:05:36;7.9;;;7.1;;
80910;SDS011;70359;51.420;7.032;2023-06-22T09:08:01;7.9;;;7.1;;
80910;SDS011;70359;51.420;7.032;2023-06-22T09:10:26;6.6;;;6;;
80910;SDS011;70359;51.420;7.032;2023-06-22T09:12:51;6.6;;;6;;
80910;SDS011;70359;51.420;7.032;2023-06-22T09:15:20;8.4;;;7.3;;
80910;SDS011;70359;51.420;7.032;2023-06-22T09:17:41;8.4;;;7.3;;
80910;SDS011;70359;51.420;7.032;2023-06-22T09:20:07;7.1;;;6.3;;
80910;SDS011;70359;51.420;7.032;2023-06-22T09:22:31;7.1;;;6.3;;
80910;SDS011;70359;51.420;7.032;2023-06-22T09:24:57;7.3;;;6.6;;
80910;SDS011;70359;51.420;7.032;2023-06-22T09:27:22;7.3;;;6.6;;
80910;SDS011;70359;51.420;7.032;2023-06-22T09:29:46;6.6;;;6;;
80910;SDS011;70359;51.420;7.032;2023-06-22T09:32:12;6.6;;;6;;
80910;SDS011;70359;51.420;7.032;2023-06-22T09:34:36;6.6;;;6;;
80910;SDS011;70359;51.420;7.032;2023-06-22T09:37:01;6.9;;;6.3;;
80910;SDS011;70359;51.420;7.032;2023-06-22T09:39:26;6.9;;;6.3;;
80910;SDS011;70359;51.420;7.032;2023-06-22T09:41:51;5.8;;;5.3;;
80910;SDS011;70359;51.420;7.032;2023-06-22T09:44:17;5.8;;;5.3;;
80910;SDS011;70359;51.420;7.032;2023-06-22T09:46:42;6;;;5.4;;
80910;SDS011;70359;51.420;7.032;2023-06-22T09:49:06;6;;;5.4;;
80910;SDS011;70359;51.420;7.032;2023-06-22T09:51:32;5.5;;;5;;
80910;SDS011;70359;51.420;7.032;2023-06-22T09:53:56;5.5;;;5;;
80910;SDS011;70359;51.420;7.032;2023-06-22T09:56:22;5.8;;;5.3;;
80910;SDS011;70359;51.420;7.032;2023-06-22T09:58:47;5.8;;;5.3;;
80910;SDS011;70359;51.420;7.032;2023-06-22T10:01:12;6.3;;;5.8;;
80910;SDS011;70359;51.420;7.032;2023-06-22T10:03:37;6.3;;;5.8;;
80910;SDS011;70359;51.420;7.032;2023-06-22T10:06:02;5.8;;;5.3;;
80910;SDS011;70359;51.420;7.032;2023-06-22T10:08:27;5.8;;;5.3;;
80910;SDS011;70359;51.420;7.032;2023-06-22T10:10:55;5.1;;;4.7;;
80910;SDS011;70359;51.420;7.032;2023-06-22T10:13:17;5.1;;;4.7;;
80910;SDS011;70359;51.420;7.032;2023-06-22T10:15:42;6.4;;;5.8;;
80910;SDS011;70359;51.420;7.032;2023-06-22T10:18:11;6.4;;;5.8;;
80910;SDS011;70359;51.420;7.032;2023-06-22T10:20:32;6.7;;;5.8;;
80910;SDS011;70359;51.420;7.032;2023-06-22T10:23:01;6.7;;;5.8;;
80910;SDS011;70359;51.420;7.032;2023-06-22T10:25:26;6.6;;;5.9;;
80910;SDS011;70359;51.420;7.032;2023-06-22T10:27:51;6.6;;;5.9;;
80910;SDS011;70359;51.420;7.032;2023-06-22T10:30:13;6.8;;;6.1;;
80910;SDS011;70359;51.420;7.032;2023-06-22T10:32:37;6.8;;;6.1;;
80910;SDS011;70359;51.420;7.032;2023-06-22T10:35:02;8.6;;;6.1;;
80910;SDS011;70359;51.420;7.032;2023-06-22T10:37:27;8.6;;;6.1;;
80910;SDS011;70359;51.420;7.032;2023-06-22T10:39:52;6.5;;;5.8;;
80910;SDS011;70359;51.420;7.032;2023-06-22T10:42:21;6.5;;;5.8;;
80910;SDS011;70359;51.420;7.032;2023-06-22T10:44:42;6.5;;;5.8;;
80910;SDS011;70359;51.420;7.032;2023-06-22T10:47:07;6.4;;;5.8;;
80910;SDS011;70359;51.420;7.032;2023-06-22T10:49:32;6.4;;;5.8;;
80910;SDS011;70359;51.420;7.032;2023-06-22T10:51:57;7.4;;;6.3;;
80910;SDS011;70359;51.420;7.032;2023-06-22T10:54:22;7.4;;;6.3;;
80910;SDS011;70359;51.420;7.032;2023-06-22T10:56:47;6.8;;;6.1;;
80910;SDS011;70359;51.420;7.032;2023-06-22T10:59:12;6.8;;;6.1;;
80910;SDS011;70359;51.420;7.032;2023-06-22T11:01:41;5.9;;;5.4;;
80910;SDS011;70359;51.420;7.032;2023-06-22T11:04:02;5.9;;;5.4;;
80910;SDS011;70359;51.420;7.032;2023-06-22T11:06:27;7;;;5.4;;
80910;SDS011;70359;51.420;7.032;2023-06-22T11:08:52;7;;;5.4;;
80910;SDS011;70359;51.420;7.032;2023-06-22T11:11:17;6;;;5.4;;
80910;SDS011;70359;51.420;7.032;2023-06-22T11:13:46;6;;;5.4;;
80910;SDS011;70359;51.420;7.032;2023-06-22T11:16:11;5.7;;;5.2;;
80910;SDS011;70359;51.420;7.032;2023-06-22T11:18:32;5.7;;;5.2;;
80910;SDS011;70359;51.420;7.032;2023-06-22T11:20:57;7.2;;;6.5;;
80910;SDS011;70359;51.420;7.032;2023-06-22T11:23:26;7.2;;;6.5;;
80910;SDS011;70359;51.420;7.032;2023-06-22T11:25:47;7.1;;;6.4;;
80910;SDS011;70359;51.420;7.032;2023-06-22T11:28:16;7.1;;;6.4;;
80910;SDS011;70359;51.420;7.032;2023-06-22T11:30:37;7.2;;;6.5;;
80910;SDS011;70359;51.420;7.032;2023-06-22T11:33:06;7.2;;;6.5;;
80910;SDS011;70359;51.420;7.032;2023-06-22T11:35:27;5.4;;;4.9;;
80910;SDS011;70359;51.420;7.032;2023-06-22T11:37:52;5.4;;;4.9;;
80910;SDS011;70359;51.420;7.032;2023-06-22T11:40:17;6.2;;;5.6;;
80910;SDS011;70359;51.420;7.032;2023-06-22T11:42:46;6.2;;;5.6;;
80910;SDS011;70359;51.420;7.032;2023-06-22T11:45:07;5.8;;;5.3;;
80910;SDS011;70359;51.420;7.032;2023-06-22T11:47:32;5.8;;;5.3;;
80910;SDS011;70359;51.420;7.032;2023-06-22T11:49:57;5.8;;;5.3;;
80910;SDS011;70359;51.420;7.032;2023-06-22T11:52:22;6.4;;;5.8;;
80910;SDS011;70359;51.420;7.032;2023-06-22T11:54:47;6.4;;;5.8;;
80910;SDS011;70359;51.420;7.032;2023-06-22T11:57:12;8.6;;;6.4;;
80910;SDS011;70359;51.420;7.032;2023-06-22T11:59:37;8.6;;;6.4;;
80910;SDS011;70359;51.420;7.032;2023-06-22T12:02:06;9.7;;;7.8;;
80910;SDS011;70359;51.420;7.032;2023-06-22T12:04:27;9.7;;;7.8;;
80910;SDS011;70359;51.420;7.032;2023-06-22T12:06:52;10;;;7.4;;
80910;SDS011;70359;51.420;7.032;2023-06-22T12:09:21;10;;;7.4;;
80910;SDS011;70359;51.420;7.032;2023-06-22T12:11:42;8.3;;;7.5;;
80910;SDS011;70359;51.420;7.032;2023-06-22T12:14:11;8.3;;;7.5;;
80910;SDS011;70359;51.420;7.032;2023-06-22T12:16:32;10;;;8.3;;
80910;SDS011;70359;51.420;7.032;2023-06-22T12:19:01;10;;;8.3;;
80910;SDS011;70359;51.420;7.032;2023-06-22T12:21:22;8.9;;;8;;
80910;SDS011;70359;51.420;7.032;2023-06-22T12:23:47;8.9;;;8;;
80910;SDS011;70359;51.420;7.032;2023-06-22T12:26:14;9.4;;;8.4;;
80910;SDS011;70359;51.420;7.032;2023-06-22T12:28:37;9.4;;;8.4;;
80910;SDS011;70359;51.420;7.032;2023-06-22T12:31:02;8.7;;;7.9;;
80910;SDS011;70359;51.420;7.032;2023-06-22T12:33:27;8.7;;;7.9;;
80910;SDS011;70359;51.420;7.032;2023-06-22T12:35:55;12.8;;;10;;
80910;SDS011;70359;51.420;7.032;2023-06-22T12:38:17;12.8;;;10;;
80910;SDS011;70359;51.420;7.032;2023-06-22T12:40:42;14.6;;;9.7;;
80910;SDS011;70359;51.420;7.032;2023-06-22T12:43:07;14.6;;;9.7;;
80910;SDS011;70359;51.420;7.032;2023-06-22T12:45:32;12.4;;;10.2;;
80910;SDS011;70359;51.420;7.032;2023-06-22T12:47:57;12.4;;;10.2;;
80910;SDS011;70359;51.420;7.032;2023-06-22T12:50:22;11.4;;;10.2;;
80910;SDS011;70359;51.420;7.032;2023-06-22T12:52:47;11.4;;;10.2;;
80910;SDS011;70359;51.420;7.032;2023-06-22T12:55:12;11.7;;;10.6;;
80910;SDS011;70359;51.420;7.032;2023-06-22T12:57:37;11.7;;;10.6;;
80910;SDS011;70359;51.420;7.032;2023-06-22T13:00:02;11.7;;;10.6;;
80910;SDS011;70359;51.420;7.032;2023-06-22T13:02:27;11.2;;;10.1;;
80910;SDS011;70359;51.420;7.032;2023-06-22T13:04:52;11.2;;;10.1;;
80910;SDS011;70359;51.420;7.032;2023-06-22T13:07:22;12.4;;;11.2;;
80910;SDS011;70359;51.420;7.032;2023-06-22T13:09:42;12.4;;;11.2;;
80910;SDS011;70359;51.420;7.032;2023-06-22T13:12:08;12.9;;;11.7;;
80910;SDS011;70359;51.420;7.032;2023-06-22T13:14:32;12.9;;;11.7;;
80910;SDS011;70359;51.420;7.032;2023-06-22T13:16:57;12.3;;;11.1;;
80910;SDS011;70359;51.420;7.032;2023-06-22T13:19:22;12.3;;;11.1;;
80910;SDS011;70359;51.420;7.032;2023-06-22T13:21:47;13.8;;;9.8;;
80910;SDS011;70359;51.420;7.032;2023-06-22T13:24:12;13.8;;;9.8;;
80910;SDS011;70359;51.420;7.032;2023-06-22T13:26:37;11.9;;;10.7;;
80910;SDS011;70359;51.420;7.032;2023-06-22T13:29:02;11.9;;;10.7;;
80910;SDS011;70359;51.420;7.032;2023-06-22T13:31:32;10.5;;;9.6;;
80910;SDS011;70359;51.420;7.032;2023-06-22T13:33:52;10.5;;;9.6;;
80910;SDS011;70359;51.420;7.032;2023-06-22T13:36:17;10.9;;;9.9;;
80910;SDS011;70359;51.420;7.032;2023-06-22T13:38:42;10.9;;;9.9;;
80910;SDS011;70359;51.420;7.032;2023-06-22T13:41:11;11.8;;;10.6;;
80910;SDS011;70359;51.420;7.032;2023-06-22T13:43:32;11.8;;;10.6;;
80910;SDS011;70359;51.420;7.032;2023-06-22T13:45:57;11.8;;;10.7;;
80910;SDS011;70359;51.420;7.032;2023-06-22T13:48:22;11.8;;;10.7;;
80910;SDS011;70359;51.420;7.032;2023-06-22T13:50:47;9.6;;;8.8;;
80910;SDS011;70359;51.420;7.032;2023-06-22T13:53:12;9.6;;;8.8;;
80910;SDS011;70359;51.420;7.032;2023-06-22T13:55:37;9.6;;;8.6;;
80910;SDS011;70359;51.420;7.032;2023-06-22T13:58:02;9.6;;;8.6;;
80910;SDS011;70359;51.420;7.032;2023-06-22T14:00:27;9.5;;;8.1;;
80910;SDS011;70359;51.420;7.032;2023-06-22T14:02:56;9.5;;;8.1;;
80910;SDS011;70359;51.420;7.032;2023-06-22T14:05:17;10.6;;;7.8;;
80910;SDS011;70359;51.420;7.032;2023-06-22T14:07:42;10.6;;;7.8;;
80910;SDS011;70359;51.420;7.032;2023-06-22T14:10:08;10.6;;;7.8;;
80910;SDS011;70359;51.420;7.032;2023-06-22T14:12:32;7.8;;;6.9;;
80910;SDS011;70359;51.420;7.032;2023-06-22T14:14:57;7.8;;;6.9;;
80910;SDS011;70359;51.420;7.032;2023-06-22T14:17:22;8.1;;;7.4;;
80910;SDS011;70359;51.420;7.032;2023-06-22T14:19:47;8.1;;;7.4;;
80910;SDS011;70359;51.420;7.032;2023-06-22T14:22:12;8;;;7.2;;
80910;SDS011;70359;51.420;7.032;2023-06-22T14:24:37;8;;;7.2;;
80910;SDS011;70359;51.420;7.032;2023-06-22T14:27:02;7.2;;;6.5;;
80910;SDS011;70359;51.420;7.032;2023-06-22T14:29:27;7.2;;;6.5;;
80910;SDS011;70359;51.420;7.032;2023-06-22T14:31:52;7.2;;;6.5;;
80910;SDS011;70359;51.420;7.032;2023-06-22T14:34:17;7.2;;;6.5;;
80910;SDS011;70359;51.420;7.032;2023-06-22T14:36:42;7.5;;;6.8;;
80910;SDS011;70359;51.420;7.032;2023-06-22T14:39:07;7.5;;;6.8;;
80910;SDS011;70359;51.420;7.032;2023-06-22T14:41:36;6.5;;;5.9;;
80910;SDS011;70359;51.420;7.032;2023-06-22T14:43:57;6.5;;;5.9;;
80910;SDS011;70359;51.420;7.032;2023-06-22T14:46:22;10.4;;;6.3;;
80910;SDS011;70359;51.420;7.032;2023-06-22T14:48:47;10.4;;;6.3;;
80910;SDS011;70359;51.420;7.032;2023-06-22T14:51:15;6.2;;;5.7;;
80910;SDS011;70359;51.420;7.032;2023-06-22T14:53:37;6.2;;;5.7;;
80910;SDS011;70359;51.420;7.032;2023-06-22T14:56:03;6.2;;;5.6;;
80910;SDS011;70359;51.420;7.032;2023-06-22T14:58:31;6.2;;;5.6;;
80910;SDS011;70359;51.420;7.032;2023-06-22T15:00:52;7.4;;;6.2;;
80910;SDS011;70359;51.420;7.032;2023-06-22T15:03:17;7.4;;;6.2;;